createdAt,value
2019-05-26T00:00:53.190Z,0.00
2019-05-26T00:01:53.211Z,0.00
2019-05-26T00:02:53.178Z,0.00
2019-05-26T00:03:53.235Z,0.00
2019-05-26T00:04:53.230Z,0.00
2019-05-26T00:05:53.361Z,0.00
2019-05-26T00:06:53.177Z,0.00
2019-05-26T00:07:53.166Z,0.00
2019-05-26T00:08:53.191Z,0.00
2019-05-26T00:09:53.197Z,0.00
2019-05-26T00:10:53.169Z,0.00
2019-05-26T00:11:53.179Z,0.00
2019-05-26T00:12:53.174Z,0.00
2019-05-26T00:13:53.216Z,0.00
2019-05-26T00:14:53.173Z,0.00
2019-05-26T00:15:53.251Z,0.00
2019-05-26T00:16:53.239Z,0.00
2019-05-26T00:17:53.186Z,0.00
2019-05-26T00:18:53.180Z,0.00
2019-05-26T00:19:53.201Z,0.00
2019-05-26T00:20:53.193Z,0.00
2019-05-26T00:21:53.180Z,0.00
2019-05-26T00:22:53.168Z,0.00
2019-05-26T00:23:56.202Z,0.00
2019-05-26T00:24:53.215Z,0.00
2019-05-26T00:25:53.186Z,0.00
2019-05-26T00:26:53.189Z,0.00
2019-05-26T00:27:53.179Z,0.00
2019-05-26T00:28:53.158Z,0.00
2019-05-26T00:29:53.167Z,0.00
2019-05-26T00:30:53.211Z,0.00
2019-05-26T00:31:53.172Z,0.00
2019-05-26T00:32:53.174Z,0.00
2019-05-26T00:33:53.164Z,0.00
2019-05-26T00:34:53.263Z,0.00
2019-05-26T00:35:53.191Z,0.00
2019-05-26T00:36:53.228Z,0.00
2019-05-26T00:37:53.202Z,0.00
2019-05-26T00:39:02.808Z,0.00
2019-05-26T00:40:57.705Z,0.00
2019-05-26T00:41:57.683Z,0.00
2019-05-26T00:42:57.679Z,0.00
2019-05-26T00:43:57.696Z,0.00
2019-05-26T00:44:57.701Z,0.00
2019-05-26T00:45:57.648Z,0.00
2019-05-26T00:46:57.678Z,0.00
2019-05-26T00:47:57.644Z,0.00
2019-05-26T00:48:57.638Z,0.00
2019-05-26T00:49:57.645Z,0.00
2019-05-26T00:50:57.690Z,0.00
2019-05-26T00:51:57.648Z,0.00
2019-05-26T00:52:57.660Z,0.00
2019-05-26T00:53:57.633Z,0.00
2019-05-26T00:54:57.670Z,0.00
2019-05-26T00:55:57.632Z,0.00
2019-05-26T00:56:57.650Z,0.00
2019-05-26T00:57:57.661Z,0.00
2019-05-26T00:58:57.660Z,0.00
2019-05-26T00:59:57.663Z,0.00
2019-05-26T01:00:57.648Z,0.00
2019-05-26T01:01:57.628Z,0.00
2019-05-26T01:02:57.643Z,0.00
2019-05-26T01:03:57.672Z,0.00
2019-05-26T01:04:57.671Z,0.00
2019-05-26T01:05:57.644Z,0.00
2019-05-26T01:06:57.674Z,0.00
2019-05-26T01:08:06.362Z,0.00
2019-05-26T01:08:57.710Z,0.00
2019-05-26T01:09:57.643Z,0.00
2019-05-26T01:11:01.128Z,0.00
2019-05-26T01:11:57.641Z,0.00
2019-05-26T01:12:57.657Z,0.00
2019-05-26T01:13:57.660Z,0.00
2019-05-26T01:14:57.644Z,0.00
2019-05-26T01:15:57.637Z,0.00
2019-05-26T01:16:57.782Z,0.00
2019-05-26T01:17:57.674Z,0.00
2019-05-26T01:18:57.658Z,0.00
2019-05-26T01:19:57.649Z,0.00
2019-05-26T01:20:57.684Z,0.00
2019-05-26T01:21:57.687Z,0.00
2019-05-26T01:22:57.647Z,0.00
2019-05-26T01:23:57.619Z,0.00
2019-05-26T01:24:57.654Z,0.00
2019-05-26T01:25:57.687Z,0.00
2019-05-26T01:26:57.657Z,0.00
2019-05-26T01:27:57.653Z,0.00
2019-05-26T01:28:57.651Z,0.00
2019-05-26T01:29:57.658Z,0.00
2019-05-26T01:30:57.686Z,0.00
2019-05-26T01:31:57.640Z,0.00
2019-05-26T01:32:57.662Z,0.00
2019-05-26T01:33:57.682Z,0.00
2019-05-26T01:34:57.632Z,0.00
2019-05-26T01:35:57.641Z,0.00
2019-05-26T01:39:09.462Z,0.00
2019-05-26T01:39:41.564Z,0.00
2019-05-26T01:40:41.561Z,0.00
2019-05-26T01:41:41.553Z,0.00
2019-05-26T01:42:41.555Z,0.00
2019-05-26T01:43:41.551Z,0.00
2019-05-26T01:44:41.555Z,0.00
2019-05-26T01:45:41.553Z,0.00
2019-05-26T01:46:41.559Z,0.00
2019-05-26T01:47:41.554Z,0.00
2019-05-26T01:48:41.548Z,0.00
2019-05-26T01:49:41.552Z,0.00
2019-05-26T01:50:41.546Z,0.00
2019-05-26T01:51:41.586Z,0.00
2019-05-26T01:52:41.546Z,0.00
2019-05-26T01:53:41.546Z,0.00
2019-05-26T01:54:41.580Z,0.00
2019-05-26T01:55:41.544Z,0.00
2019-05-26T01:56:41.542Z,0.00
2019-05-26T01:57:41.552Z,0.00
2019-05-26T01:58:41.546Z,0.00
2019-05-26T01:59:41.554Z,0.00
2019-05-26T02:00:41.554Z,0.00
2019-05-26T02:01:41.534Z,0.00
2019-05-26T02:02:41.531Z,0.00
2019-05-26T02:03:41.537Z,0.00
2019-05-26T02:04:41.531Z,0.00
2019-05-26T02:05:41.531Z,0.00
2019-05-26T02:06:41.529Z,0.00
2019-05-26T02:07:41.529Z,0.00
2019-05-26T02:08:41.517Z,0.00
2019-05-26T02:09:41.526Z,0.00
2019-05-26T02:10:41.520Z,0.00
2019-05-26T02:11:41.520Z,0.00
2019-05-26T02:12:41.582Z,0.00
2019-05-26T02:13:41.537Z,0.00
2019-05-26T02:14:41.511Z,0.00
2019-05-26T02:15:41.542Z,0.00
2019-05-26T02:16:41.528Z,0.00
2019-05-26T02:17:41.525Z,0.00
2019-05-26T02:18:41.514Z,0.00
2019-05-26T02:19:41.507Z,0.00
2019-05-26T02:20:41.505Z,0.00
2019-05-26T02:21:41.506Z,0.00
2019-05-26T02:22:41.498Z,0.00
2019-05-26T02:23:41.506Z,0.00
2019-05-26T02:24:41.494Z,0.00
2019-05-26T02:25:41.505Z,0.00
2019-05-26T02:26:41.496Z,0.00
2019-05-26T02:27:41.486Z,0.00
2019-05-26T02:28:48.648Z,0.00
2019-05-26T02:30:45.509Z,0.00
2019-05-26T02:31:45.486Z,0.00
2019-05-26T02:33:49.466Z,0.00
2019-05-26T02:34:56.615Z,0.00
2019-05-26T02:37:00.600Z,0.00
2019-05-26T02:37:53.463Z,0.00
2019-05-26T02:39:57.421Z,0.00
2019-05-26T02:40:57.422Z,0.00
2019-05-26T02:43:01.444Z,0.00
2019-05-26T02:44:01.425Z,0.00
2019-05-26T02:46:06.436Z,0.00
2019-05-26T02:47:06.404Z,0.00
2019-05-26T02:48:59.346Z,0.00
2019-05-26T02:49:59.322Z,0.00
2019-05-26T02:52:03.824Z,0.00
2019-05-26T02:53:03.799Z,0.00
2019-05-26T02:54:03.813Z,0.00
2019-05-26T02:55:03.799Z,0.00
2019-05-26T02:56:03.793Z,0.00
2019-05-26T02:57:03.796Z,0.00
2019-05-26T02:58:03.797Z,0.00
2019-05-26T02:59:03.790Z,0.00
2019-05-26T03:00:03.788Z,0.00
2019-05-26T03:01:03.792Z,0.00
2019-05-26T03:02:04.824Z,0.00
2019-05-26T03:03:03.784Z,0.00
2019-05-26T03:04:03.811Z,0.00
2019-05-26T03:05:03.777Z,0.00
2019-05-26T03:06:03.778Z,0.00
2019-05-26T03:07:03.782Z,0.00
2019-05-26T03:08:03.786Z,0.00
2019-05-26T03:09:21.101Z,0.00
2019-05-26T03:10:03.771Z,0.00
2019-05-26T03:11:03.766Z,0.00
2019-05-26T03:12:03.768Z,0.00
2019-05-26T03:13:03.764Z,0.00
2019-05-26T03:14:03.770Z,0.00
2019-05-26T03:15:03.762Z,0.00
2019-05-26T03:16:03.760Z,0.00
2019-05-26T03:17:03.782Z,0.00
2019-05-26T03:18:03.755Z,0.00
2019-05-26T03:19:03.753Z,0.00
2019-05-26T03:20:03.750Z,0.00
2019-05-26T03:21:03.776Z,0.00
2019-05-26T03:22:03.751Z,0.00
2019-05-26T03:23:03.742Z,0.00
2019-05-26T03:24:03.742Z,0.00
2019-05-26T03:25:03.739Z,0.00
2019-05-26T03:26:03.743Z,0.00
2019-05-26T03:27:03.741Z,0.00
2019-05-26T03:28:03.733Z,0.00
2019-05-26T03:29:03.729Z,0.00
2019-05-26T03:30:03.734Z,0.00
2019-05-26T03:31:03.727Z,0.00
2019-05-26T03:32:03.733Z,0.00
2019-05-26T03:33:03.723Z,0.00
2019-05-26T03:34:03.777Z,0.00
2019-05-26T03:35:03.823Z,0.00
2019-05-26T03:36:03.712Z,0.00
2019-05-26T03:37:03.718Z,0.00
2019-05-26T03:38:03.715Z,0.00
2019-05-26T03:39:03.715Z,0.00
2019-05-26T03:40:03.709Z,0.00
2019-05-26T03:41:03.707Z,0.00
2019-05-26T03:42:03.710Z,0.00
2019-05-26T03:43:03.714Z,0.00
2019-05-26T03:44:03.711Z,0.00
2019-05-26T03:45:03.703Z,0.00
2019-05-26T03:46:03.691Z,0.00
2019-05-26T03:47:03.694Z,0.00
2019-05-26T03:48:03.692Z,0.00
2019-05-26T03:49:03.692Z,0.00
2019-05-26T03:50:03.699Z,0.00
2019-05-26T03:51:03.680Z,5.63
2019-05-26T03:52:03.684Z,5.63
2019-05-26T03:53:03.687Z,5.63
2019-05-26T03:54:03.694Z,5.63
2019-05-26T03:55:03.697Z,5.63
2019-05-26T03:56:03.705Z,5.63
2019-05-26T03:57:03.676Z,5.63
2019-05-26T03:58:03.673Z,5.63
2019-05-26T03:59:03.669Z,5.63
2019-05-26T04:00:03.676Z,5.63
2019-05-26T04:01:03.670Z,5.63
2019-05-26T04:02:03.672Z,5.63
2019-05-26T04:03:03.680Z,5.63
2019-05-26T04:04:03.664Z,5.63
2019-05-26T04:05:03.661Z,11.25
2019-05-26T04:06:03.661Z,11.25
2019-05-26T04:23:30.467Z,22.50
2019-05-26T04:24:30.464Z,22.50
2019-05-26T04:26:34.466Z,22.50
2019-05-26T04:27:34.459Z,22.50
2019-05-26T04:29:27.991Z,28.13
2019-05-26T04:30:27.914Z,39.38
2019-05-26T04:31:27.868Z,61.88
2019-05-26T04:32:27.864Z,67.50
2019-05-26T04:33:27.869Z,67.50
2019-05-26T04:34:27.863Z,78.75
2019-05-26T04:35:27.855Z,78.75
2019-05-26T04:36:27.843Z,78.75
2019-05-26T04:37:27.855Z,73.13
2019-05-26T04:38:27.853Z,84.38
2019-05-26T04:39:27.847Z,90.00
2019-05-26T04:40:28.339Z,112.50
2019-05-26T04:41:27.869Z,118.13
2019-05-26T04:42:27.847Z,118.13
2019-05-26T04:43:27.878Z,118.13
2019-05-26T04:44:27.851Z,112.50
2019-05-26T04:45:27.849Z,106.88
2019-05-26T04:46:27.853Z,101.25
2019-05-26T04:47:27.864Z,90.00
2019-05-26T04:48:27.855Z,84.38
2019-05-26T04:49:27.858Z,84.38
2019-05-26T04:50:27.890Z,78.75
2019-05-26T04:51:27.880Z,84.38
2019-05-26T04:52:27.894Z,101.25
2019-05-26T04:53:27.881Z,118.13
2019-05-26T04:54:27.887Z,129.38
2019-05-26T04:55:27.893Z,140.63
2019-05-26T04:56:27.905Z,151.88
2019-05-26T04:57:27.926Z,168.75
2019-05-26T04:58:27.919Z,168.75
2019-05-26T04:59:27.923Z,180.00
2019-05-26T05:00:27.931Z,180.00
2019-05-26T05:01:27.947Z,185.63
2019-05-26T05:02:27.954Z,196.88
2019-05-26T05:03:27.960Z,191.25
2019-05-26T05:04:27.969Z,196.88
2019-05-26T05:05:27.975Z,202.50
2019-05-26T05:06:27.984Z,208.13
2019-05-26T05:07:28.643Z,213.75
2019-05-26T05:08:28.007Z,219.38
2019-05-26T05:09:28.013Z,225.00
2019-05-26T05:10:41.343Z,230.63
2019-05-26T05:11:28.120Z,236.25
2019-05-26T05:12:28.047Z,236.25
2019-05-26T05:13:28.061Z,241.88
2019-05-26T05:14:28.073Z,253.13
2019-05-26T05:15:28.079Z,264.38
2019-05-26T05:16:28.111Z,264.38
2019-05-26T05:17:28.112Z,275.63
2019-05-26T05:18:28.126Z,281.25
2019-05-26T05:19:28.142Z,286.88
2019-05-26T05:20:28.148Z,298.13
2019-05-26T05:21:28.167Z,309.38
2019-05-26T05:22:28.175Z,326.25
2019-05-26T05:23:28.186Z,337.50
2019-05-26T05:24:28.215Z,343.13
2019-05-26T05:25:28.221Z,360.00
2019-05-26T05:26:28.253Z,371.25
2019-05-26T05:27:28.246Z,382.50
2019-05-26T05:28:28.328Z,405.00
2019-05-26T05:29:28.272Z,433.13
2019-05-26T05:30:28.299Z,455.63
2019-05-26T05:31:28.302Z,472.50
2019-05-26T05:32:28.313Z,500.63
2019-05-26T05:33:28.333Z,545.63
2019-05-26T05:34:28.342Z,607.50
2019-05-26T05:35:28.359Z,624.38
2019-05-26T05:36:28.381Z,675.00
2019-05-26T05:37:28.399Z,708.75
2019-05-26T05:38:28.405Z,714.38
2019-05-26T05:39:28.424Z,720.00
2019-05-26T05:40:28.440Z,770.63
2019-05-26T05:41:28.453Z,810.00
2019-05-26T05:42:28.475Z,838.13
2019-05-26T05:43:28.484Z,888.75
2019-05-26T05:44:28.497Z,1040.63
2019-05-26T05:45:28.519Z,1203.75
2019-05-26T05:46:28.535Z,1428.75
2019-05-26T05:47:28.552Z,1501.88
2019-05-26T05:48:28.567Z,1215.00
2019-05-26T05:49:28.588Z,1237.50
2019-05-26T05:50:28.598Z,1321.88
2019-05-26T05:51:28.617Z,1192.50
2019-05-26T05:52:28.629Z,1096.88
2019-05-26T05:53:28.659Z,1085.63
2019-05-26T05:54:28.669Z,1209.38
2019-05-26T05:55:28.694Z,1496.25
2019-05-26T05:56:28.706Z,1496.25
2019-05-26T05:57:28.727Z,1423.13
2019-05-26T05:58:28.735Z,1468.13
2019-05-26T05:59:28.758Z,1788.75
2019-05-26T06:00:28.777Z,1822.50
2019-05-26T06:01:28.784Z,1642.50
2019-05-26T06:02:28.802Z,1648.13
2019-05-26T06:03:28.817Z,1620.00
2019-05-26T06:04:28.830Z,1636.88
2019-05-26T06:05:28.851Z,1715.63
2019-05-26T06:06:28.869Z,1535.63
2019-05-26T06:07:28.896Z,1423.13
2019-05-26T06:08:28.903Z,1513.13
2019-05-26T06:09:28.922Z,1659.38
2019-05-26T06:10:28.946Z,1440.00
2019-05-26T06:11:28.958Z,742.50
2019-05-26T06:12:28.977Z,151.88
2019-05-26T06:13:28.997Z,106.88
2019-05-26T06:14:29.052Z,95.63
2019-05-26T06:15:29.020Z,78.75
2019-05-26T06:16:29.049Z,73.13
2019-05-26T06:17:29.060Z,73.13
2019-05-26T06:18:29.068Z,73.13
2019-05-26T06:19:29.077Z,67.50
2019-05-26T06:20:29.084Z,67.50
2019-05-26T06:21:29.095Z,73.13
2019-05-26T06:22:29.106Z,73.13
2019-05-26T06:23:29.121Z,73.13
2019-05-26T06:24:29.133Z,67.50
2019-05-26T06:25:29.149Z,67.50
2019-05-26T06:26:29.146Z,67.50
2019-05-26T06:27:29.155Z,67.50
2019-05-26T06:28:29.167Z,67.50
2019-05-26T06:29:29.169Z,67.50
2019-05-26T06:30:29.184Z,67.50
2019-05-26T06:31:29.189Z,67.50
2019-05-26T06:32:29.195Z,67.50
2019-05-26T06:33:29.198Z,67.50
2019-05-26T06:34:29.204Z,73.13
2019-05-26T06:35:32.438Z,67.50
2019-05-26T06:36:29.226Z,67.50
2019-05-26T06:37:29.228Z,67.50
2019-05-26T06:38:29.236Z,67.50
2019-05-26T06:39:29.239Z,67.50
2019-05-26T06:40:29.243Z,67.50
2019-05-26T06:41:34.036Z,67.50
2019-05-26T06:42:29.251Z,67.50
2019-05-26T06:43:29.259Z,67.50
2019-05-26T06:44:29.258Z,67.50
2019-05-26T06:45:29.268Z,67.50
2019-05-26T06:46:29.287Z,67.50
2019-05-26T06:47:29.275Z,67.50
2019-05-26T06:48:29.279Z,67.50
2019-05-26T06:49:29.283Z,67.50
2019-05-26T06:50:29.291Z,67.50
2019-05-26T06:51:29.294Z,67.50
2019-05-26T06:52:29.303Z,67.50
2019-05-26T06:53:29.297Z,67.50
2019-05-26T06:54:29.304Z,67.50
2019-05-26T06:55:29.298Z,67.50
2019-05-26T06:56:29.307Z,73.13
2019-05-26T06:57:29.316Z,73.13
2019-05-26T06:58:29.313Z,73.13
2019-05-26T06:59:29.321Z,73.13
2019-05-26T07:00:29.330Z,73.13
2019-05-26T07:01:29.321Z,73.13
2019-05-26T07:02:29.334Z,67.50
2019-05-26T07:03:29.336Z,67.50
2019-05-26T07:04:29.351Z,67.50
2019-05-26T07:05:29.334Z,61.88
2019-05-26T07:06:29.341Z,61.88
2019-05-26T07:07:29.341Z,61.88
2019-05-26T07:08:29.347Z,61.88
2019-05-26T07:09:29.343Z,67.50
2019-05-26T07:10:29.355Z,61.88
2019-05-26T07:11:29.352Z,61.88
2019-05-26T07:12:29.351Z,61.88
2019-05-26T07:13:29.374Z,61.88
2019-05-26T07:14:29.373Z,67.50
2019-05-26T07:15:29.380Z,67.50
2019-05-26T07:16:38.159Z,67.50
2019-05-26T07:17:29.375Z,61.88
2019-05-26T07:18:29.370Z,61.88
2019-05-26T07:19:29.369Z,61.88
2019-05-26T07:20:29.370Z,61.88
2019-05-26T07:21:29.392Z,61.88
2019-05-26T07:22:29.377Z,61.88
2019-05-26T07:23:29.380Z,61.88
2019-05-26T07:24:29.717Z,61.88
2019-05-26T07:25:29.390Z,61.88
2019-05-26T07:26:29.395Z,61.88
2019-05-26T07:27:29.389Z,61.88
2019-05-26T07:28:29.399Z,61.88
2019-05-26T07:29:29.396Z,61.88
2019-05-26T07:30:29.393Z,61.88
2019-05-26T07:31:29.398Z,61.88
2019-05-26T07:32:29.397Z,61.88
2019-05-26T07:33:29.400Z,61.88
2019-05-26T07:34:29.403Z,61.88
2019-05-26T07:35:29.408Z,61.88
2019-05-26T07:36:29.411Z,61.88
2019-05-26T07:37:29.413Z,61.88
2019-05-26T07:38:29.439Z,56.25
2019-05-26T07:39:29.414Z,56.25
2019-05-26T07:40:29.421Z,56.25
2019-05-26T07:41:29.416Z,50.63
2019-05-26T07:42:29.416Z,56.25
2019-05-26T07:43:29.429Z,56.25
2019-05-26T07:44:29.426Z,50.63
2019-05-26T07:45:29.425Z,56.25
2019-05-26T07:46:29.428Z,56.25
2019-05-26T07:47:29.440Z,56.25
2019-05-26T07:48:29.437Z,50.63
2019-05-26T07:49:29.437Z,50.63
2019-05-26T07:50:29.439Z,50.63
2019-05-26T07:51:29.440Z,50.63
2019-05-26T07:52:29.458Z,50.63
2019-05-26T07:53:29.446Z,50.63
2019-05-26T07:54:29.442Z,50.63
2019-05-26T07:55:29.450Z,50.63
2019-05-26T07:56:29.444Z,56.25
2019-05-26T07:57:29.452Z,56.25
2019-05-26T07:58:29.446Z,56.25
2019-05-26T07:59:29.449Z,56.25
2019-05-26T08:00:29.458Z,56.25
2019-05-26T08:01:35.565Z,56.25
2019-05-26T08:02:29.453Z,56.25
2019-05-26T08:03:29.461Z,50.63
2019-05-26T08:04:29.459Z,50.63
2019-05-26T08:05:29.461Z,50.63
2019-05-26T08:06:29.466Z,50.63
2019-05-26T08:07:29.466Z,50.63
2019-05-26T08:08:29.475Z,50.63
2019-05-26T08:09:29.477Z,50.63
2019-05-26T08:10:29.491Z,56.25
2019-05-26T08:11:29.471Z,56.25
2019-05-26T08:12:30.733Z,56.25
2019-05-26T08:13:29.482Z,56.25
2019-05-26T08:14:29.490Z,50.63
2019-05-26T08:15:29.493Z,50.63
2019-05-26T08:16:29.482Z,50.63
2019-05-26T08:17:29.510Z,50.63
2019-05-26T08:18:29.577Z,50.63
2019-05-26T08:19:29.491Z,45.00
2019-05-26T08:20:29.488Z,45.00
2019-05-26T08:21:29.498Z,45.00
2019-05-26T08:22:29.488Z,50.63
2019-05-26T08:23:29.497Z,50.63
2019-05-26T08:24:29.495Z,50.63
2019-05-26T08:25:29.498Z,45.00
2019-05-26T08:26:29.509Z,45.00
2019-05-26T08:27:29.509Z,45.00
2019-05-26T08:28:29.526Z,45.00
2019-05-26T08:29:29.523Z,45.00
2019-05-26T08:30:29.515Z,45.00
2019-05-26T08:31:29.519Z,45.00
2019-05-26T08:32:29.524Z,45.00
2019-05-26T08:33:29.516Z,45.00
2019-05-26T08:34:29.524Z,45.00
2019-05-26T08:35:29.525Z,45.00
2019-05-26T08:36:29.525Z,45.00
2019-05-26T08:37:29.529Z,45.00
2019-05-26T08:38:29.528Z,45.00
2019-05-26T08:39:29.534Z,45.00
2019-05-26T08:40:29.540Z,45.00
2019-05-26T08:41:29.536Z,45.00
2019-05-26T08:42:43.793Z,45.00
2019-05-26T08:43:29.537Z,45.00
2019-05-26T08:44:29.597Z,39.38
2019-05-26T08:45:29.544Z,39.38
2019-05-26T08:46:29.551Z,39.38
2019-05-26T08:47:29.555Z,39.38
2019-05-26T08:48:29.552Z,39.38
2019-05-26T08:49:29.551Z,39.38
2019-05-26T08:50:29.559Z,39.38
2019-05-26T08:51:29.558Z,33.75
2019-05-26T08:52:29.557Z,33.75
2019-05-26T08:53:29.564Z,33.75
2019-05-26T08:54:29.563Z,33.75
2019-05-26T08:55:29.566Z,33.75
2019-05-26T08:56:29.577Z,33.75
2019-05-26T08:57:29.580Z,33.75
2019-05-26T08:58:29.653Z,39.38
2019-05-26T08:59:29.580Z,39.38
2019-05-26T09:00:29.581Z,39.38
2019-05-26T09:01:29.571Z,39.38
2019-05-26T09:02:29.619Z,33.75
2019-05-26T09:03:29.578Z,33.75
2019-05-26T09:04:29.581Z,33.75
2019-05-26T09:05:29.583Z,33.75
2019-05-26T09:06:29.580Z,33.75
2019-05-26T09:07:29.601Z,33.75
2019-05-26T09:08:29.592Z,33.75
2019-05-26T09:09:29.588Z,33.75
2019-05-26T09:10:29.592Z,33.75
2019-05-26T09:11:29.607Z,33.75
2019-05-26T09:12:29.604Z,33.75
2019-05-26T09:13:29.600Z,33.75
2019-05-26T09:14:29.599Z,33.75
2019-05-26T09:15:29.602Z,33.75
2019-05-26T09:16:29.632Z,33.75
2019-05-26T09:17:29.609Z,33.75
2019-05-26T09:18:29.610Z,33.75
2019-05-26T09:19:29.615Z,33.75
2019-05-26T09:20:29.613Z,33.75
2019-05-26T09:21:29.616Z,33.75
2019-05-26T09:22:29.615Z,33.75
2019-05-26T09:23:29.615Z,33.75
2019-05-26T09:24:29.620Z,33.75
2019-05-26T09:25:29.636Z,28.13
2019-05-26T09:26:29.624Z,33.75
2019-05-26T09:27:29.654Z,33.75
2019-05-26T09:28:29.626Z,28.13
2019-05-26T09:29:29.657Z,28.13
2019-05-26T09:30:29.635Z,28.13
2019-05-26T09:31:29.645Z,28.13
2019-05-26T09:32:29.644Z,28.13
2019-05-26T09:33:29.633Z,33.75
2019-05-26T09:34:29.936Z,33.75
2019-05-26T09:35:29.650Z,33.75
2019-05-26T09:36:29.640Z,33.75
2019-05-26T09:37:29.645Z,33.75
2019-05-26T09:38:29.663Z,33.75
2019-05-26T09:39:29.646Z,33.75
2019-05-26T09:40:29.662Z,33.75
2019-05-26T09:41:29.655Z,33.75
2019-05-26T09:42:29.658Z,33.75
2019-05-26T09:43:29.671Z,33.75
2019-05-26T09:44:29.663Z,33.75
2019-05-26T09:45:29.663Z,33.75
2019-05-26T09:46:29.661Z,33.75
2019-05-26T09:47:29.672Z,33.75
2019-05-26T09:48:29.707Z,33.75
2019-05-26T09:49:29.674Z,33.75
2019-05-26T09:50:29.669Z,28.13
2019-05-26T09:51:29.703Z,33.75
2019-05-26T09:52:29.673Z,33.75
2019-05-26T09:53:29.688Z,33.75
2019-05-26T09:54:29.679Z,39.38
2019-05-26T09:55:29.697Z,39.38
2019-05-26T09:56:29.684Z,39.38
2019-05-26T09:57:29.706Z,39.38
2019-05-26T09:58:29.692Z,39.38
2019-05-26T09:59:29.734Z,39.38
2019-05-26T10:00:29.746Z,39.38
2019-05-26T10:01:29.742Z,33.75
2019-05-26T10:02:29.710Z,33.75
2019-05-26T10:03:29.702Z,33.75
2019-05-26T10:04:29.704Z,33.75
2019-05-26T10:05:29.712Z,39.38
2019-05-26T10:06:29.718Z,39.38
2019-05-26T10:07:29.725Z,39.38
2019-05-26T10:08:29.723Z,39.38
2019-05-26T10:09:29.843Z,39.38
2019-05-26T10:10:29.739Z,39.38
2019-05-26T10:11:29.730Z,39.38
2019-05-26T10:12:29.777Z,39.38
2019-05-26T10:13:31.968Z,39.38
2019-05-26T10:14:29.739Z,39.38
2019-05-26T10:15:29.737Z,39.38
2019-05-26T10:16:29.742Z,33.75
2019-05-26T10:17:29.746Z,33.75
2019-05-26T10:18:29.756Z,33.75
2019-05-26T10:19:29.747Z,33.75
2019-05-26T10:20:29.775Z,33.75
2019-05-26T10:21:29.787Z,33.75
2019-05-26T10:22:29.752Z,28.13
2019-05-26T10:23:29.753Z,28.13
2019-05-26T10:24:29.763Z,28.13
2019-05-26T10:25:29.768Z,28.13
2019-05-26T10:26:29.771Z,28.13
2019-05-26T10:27:29.792Z,33.75
2019-05-26T10:28:29.777Z,33.75
2019-05-26T10:29:29.766Z,33.75
2019-05-26T10:30:29.781Z,33.75
2019-05-26T10:31:29.780Z,33.75
2019-05-26T10:32:29.796Z,33.75
2019-05-26T10:33:29.779Z,33.75
2019-05-26T10:34:29.793Z,33.75
2019-05-26T10:35:29.782Z,33.75
2019-05-26T10:36:29.788Z,33.75
2019-05-26T10:37:29.803Z,33.75
2019-05-26T10:38:29.792Z,33.75
2019-05-26T10:39:29.844Z,33.75
2019-05-26T10:40:29.809Z,33.75
2019-05-26T10:41:29.811Z,28.13
2019-05-26T10:42:29.808Z,28.13
2019-05-26T10:43:29.811Z,28.13
2019-05-26T10:44:29.815Z,28.13
2019-05-26T10:45:29.814Z,28.13
2019-05-26T10:46:29.818Z,28.13
2019-05-26T10:47:29.821Z,28.13
2019-05-26T10:48:29.824Z,28.13
2019-05-26T10:49:29.823Z,28.13
2019-05-26T10:50:29.829Z,33.75
2019-05-26T10:51:29.966Z,33.75
2019-05-26T10:52:29.868Z,33.75
2019-05-26T10:53:29.829Z,33.75
2019-05-26T10:54:29.826Z,33.75
2019-05-26T10:55:29.833Z,33.75
2019-05-26T10:56:29.842Z,33.75
2019-05-26T10:57:29.851Z,33.75
2019-05-26T10:58:29.855Z,33.75
2019-05-26T10:59:31.226Z,33.75
2019-05-26T11:00:32.794Z,33.75
2019-05-26T11:01:29.926Z,33.75
2019-05-26T11:02:29.893Z,33.75
2019-05-26T11:03:29.893Z,33.75
2019-05-26T11:04:29.861Z,33.75
2019-05-26T11:05:29.981Z,33.75
2019-05-26T11:06:29.870Z,33.75
2019-05-26T11:07:29.869Z,33.75
2019-05-26T11:08:29.877Z,33.75
2019-05-26T11:09:29.972Z,33.75
2019-05-26T11:10:29.931Z,33.75
2019-05-26T11:11:29.883Z,33.75
2019-05-26T11:12:29.882Z,33.75
2019-05-26T11:13:29.900Z,28.13
2019-05-26T11:14:29.934Z,28.13
2019-05-26T11:15:29.901Z,28.13
2019-05-26T11:16:29.997Z,28.13
2019-05-26T11:17:29.945Z,33.75
2019-05-26T11:18:29.955Z,33.75
2019-05-26T11:19:29.909Z,28.13
2019-05-26T11:20:29.972Z,28.13
2019-05-26T11:21:29.960Z,28.13
2019-05-26T11:22:29.919Z,28.13
2019-05-26T11:23:29.921Z,28.13
2019-05-26T11:24:29.939Z,28.13
2019-05-26T11:25:29.926Z,28.13
2019-05-26T11:26:29.942Z,28.13
2019-05-26T11:27:29.947Z,28.13
2019-05-26T11:28:29.935Z,28.13
2019-05-26T11:29:29.933Z,28.13
2019-05-26T11:30:29.946Z,28.13
2019-05-26T11:31:30.029Z,28.13
2019-05-26T11:32:29.955Z,33.75
2019-05-26T11:33:29.955Z,33.75
2019-05-26T11:34:29.946Z,33.75
2019-05-26T11:35:29.973Z,33.75
2019-05-26T11:36:29.972Z,33.75
2019-05-26T11:37:29.963Z,33.75
2019-05-26T11:38:33.301Z,33.75
2019-05-26T11:39:29.969Z,33.75
2019-05-26T11:40:29.971Z,33.75
2019-05-26T11:41:29.979Z,33.75
2019-05-26T11:42:29.981Z,33.75
2019-05-26T11:43:29.975Z,33.75
2019-05-26T11:44:29.985Z,33.75
2019-05-26T11:45:29.981Z,33.75
2019-05-26T11:46:29.996Z,33.75
2019-05-26T11:47:29.985Z,33.75
2019-05-26T11:48:29.995Z,33.75
2019-05-26T11:49:30.011Z,33.75
2019-05-26T11:50:29.998Z,33.75
2019-05-26T11:51:30.043Z,33.75
2019-05-26T11:52:30.009Z,33.75
2019-05-26T11:53:30.101Z,33.75
2019-05-26T11:54:30.019Z,33.75
2019-05-26T11:55:30.022Z,33.75
2019-05-26T11:56:30.098Z,33.75
2019-05-26T11:57:30.095Z,33.75
2019-05-26T11:58:30.033Z,33.75
2019-05-26T11:59:30.084Z,33.75
2019-05-26T12:00:30.041Z,33.75
2019-05-26T12:01:30.055Z,33.75
2019-05-26T12:02:30.040Z,33.75
2019-05-26T12:03:30.090Z,33.75
2019-05-26T12:04:30.044Z,33.75
2019-05-26T12:05:30.074Z,33.75
2019-05-26T12:06:30.061Z,33.75
2019-05-26T12:07:30.064Z,33.75
2019-05-26T12:08:30.087Z,33.75
2019-05-26T12:09:30.065Z,33.75
2019-05-26T12:10:30.075Z,33.75
2019-05-26T12:11:30.079Z,33.75
2019-05-26T12:12:30.075Z,33.75
2019-05-26T12:13:30.081Z,33.75
2019-05-26T12:14:35.012Z,33.75
2019-05-26T12:15:30.082Z,28.13
2019-05-26T12:16:30.251Z,33.75
2019-05-26T12:17:30.088Z,33.75
2019-05-26T12:18:30.255Z,33.75
2019-05-26T12:19:30.099Z,33.75
2019-05-26T12:20:30.106Z,33.75
2019-05-26T12:21:30.114Z,33.75
2019-05-26T12:22:30.107Z,28.13
2019-05-26T12:23:30.113Z,28.13
2019-05-26T12:24:30.126Z,28.13
2019-05-26T12:25:30.120Z,28.13
2019-05-26T12:26:30.125Z,28.13
2019-05-26T12:27:30.126Z,28.13
2019-05-26T12:28:30.133Z,28.13
2019-05-26T12:29:30.138Z,28.13
2019-05-26T12:30:30.141Z,28.13
2019-05-26T12:31:30.145Z,28.13
2019-05-26T12:32:30.148Z,28.13
2019-05-26T12:33:30.161Z,28.13
2019-05-26T12:34:30.152Z,28.13
2019-05-26T12:35:30.158Z,28.13
2019-05-26T12:36:30.158Z,28.13
2019-05-26T12:37:30.169Z,28.13
2019-05-26T12:38:30.166Z,28.13
2019-05-26T12:39:30.182Z,28.13
2019-05-26T12:40:30.178Z,28.13
2019-05-26T12:41:33.233Z,28.13
2019-05-26T12:42:30.179Z,28.13
2019-05-26T12:43:30.241Z,28.13
2019-05-26T12:44:30.190Z,28.13
2019-05-26T12:45:30.190Z,28.13
2019-05-26T12:46:30.224Z,28.13
2019-05-26T12:47:30.198Z,28.13
2019-05-26T12:48:30.208Z,28.13
2019-05-26T12:49:30.202Z,28.13
2019-05-26T12:50:30.208Z,28.13
2019-05-26T12:51:30.212Z,28.13
2019-05-26T12:52:30.215Z,28.13
2019-05-26T12:53:30.221Z,28.13
2019-05-26T12:54:30.220Z,28.13
2019-05-26T12:55:30.224Z,28.13
2019-05-26T12:56:30.236Z,28.13
2019-05-26T12:57:30.232Z,28.13
2019-05-26T12:58:30.232Z,22.50
2019-05-26T12:59:30.236Z,22.50
2019-05-26T13:00:47.060Z,22.50
2019-05-26T13:01:30.246Z,22.50
2019-05-26T13:02:30.246Z,22.50
2019-05-26T13:03:30.246Z,22.50
2019-05-26T13:04:30.256Z,22.50
2019-05-26T13:05:30.254Z,22.50
2019-05-26T13:06:30.274Z,22.50
2019-05-26T13:07:30.293Z,22.50
2019-05-26T13:08:30.267Z,22.50
2019-05-26T13:09:30.275Z,22.50
2019-05-26T13:10:30.282Z,22.50
2019-05-26T13:11:30.284Z,22.50
2019-05-26T13:12:30.287Z,22.50
2019-05-26T13:13:30.299Z,22.50
2019-05-26T13:14:30.325Z,22.50
2019-05-26T13:15:30.337Z,22.50
2019-05-26T13:16:30.291Z,22.50
2019-05-26T13:17:30.311Z,22.50
2019-05-26T13:18:30.301Z,22.50
2019-05-26T13:19:30.307Z,22.50
2019-05-26T13:20:30.432Z,22.50
2019-05-26T13:21:30.335Z,22.50
2019-05-26T13:22:30.313Z,22.50
2019-05-26T13:23:30.328Z,22.50
2019-05-26T13:24:30.323Z,22.50
2019-05-26T13:25:30.354Z,22.50
2019-05-26T13:26:30.332Z,22.50